Terminal Aerodrome Forecast
Issued by NWS Blacksburg, VA

Home | Current Version | Previous Version | Text Only | Print | Product List | Glossary On
Versions: 1 2 3 4 5 6 7 8 9 10 11 12 13 14 15 16 17 18 19 20 21 22 23 24 25 26 27 28
000
FTUS41 KRNK 011407 AAA
TAFDAN
TAF AMD
KDAN 011407Z 0114/0212 04007KT 5SM -SHRA BR SCT007 OVC035
     FM011900 05007KT 5SM -SHRA BR VCTS BKN005 OVC015CB
     FM012300 07007KT 3SM -RA OVC007
     FM020700 05004KT 4SM BR OVC005=

USA.gov is the U.S. government's official web portal to all federal, state and local government web resources and services.